sensor_id;sensor_type;location;lat;lon;timestamp;P1;durP1;ratioP1;P2;durP2;ratioP2
75704;SDS011;64323;44.788;37.692;2022-10-15T00:02:30;10.10;;;4.13;;
75704;SDS011;64323;44.788;37.692;2022-10-15T00:05:02;11.00;;;4.78;;
75704;SDS011;64323;44.788;37.692;2022-10-15T00:07:34;8.48;;;4.28;;
75704;SDS011;64323;44.788;37.692;2022-10-15T00:10:06;12.15;;;4.20;;
75704;SDS011;64323;44.788;37.692;2022-10-15T00:12:39;11.43;;;4.43;;
75704;SDS011;64323;44.788;37.692;2022-10-15T00:15:11;11.23;;;4.38;;
75704;SDS011;64323;44.788;37.692;2022-10-15T00:17:44;19.88;;;4.53;;
75704;SDS011;64323;44.788;37.692;2022-10-15T00:20:16;9.52;;;4.32;;
75704;SDS011;64323;44.788;37.692;2022-10-15T00:22:48;12.27;;;4.55;;
75704;SDS011;64323;44.788;37.692;2022-10-15T00:25:20;11.63;;;4.32;;
75704;SDS011;64323;44.788;37.692;2022-10-15T00:27:52;14.27;;;4.70;;
75704;SDS011;64323;44.788;37.692;2022-10-15T00:30:23;11.73;;;4.40;;
75704;SDS011;64323;44.788;37.692;2022-10-15T00:32:55;11.25;;;4.32;;
75704;SDS011;64323;44.788;37.692;2022-10-15T00:35:28;10.57;;;4.78;;
75704;SDS011;64323;44.788;37.692;2022-10-15T00:37:59;10.07;;;4.43;;
75704;SDS011;64323;44.788;37.692;2022-10-15T00:40:32;13.27;;;4.63;;
75704;SDS011;64323;44.788;37.692;2022-10-15T00:43:07;13.52;;;4.15;;
75704;SDS011;64323;44.788;37.692;2022-10-15T00:45:41;9.55;;;4.70;;
75704;SDS011;64323;44.788;37.692;2022-10-15T00:48:13;10.05;;;4.50;;
75704;SDS011;64323;44.788;37.692;2022-10-15T00:50:45;13.05;;;4.10;;
75704;SDS011;64323;44.788;37.692;2022-10-15T00:53:18;20.50;;;4.88;;
75704;SDS011;64323;44.788;37.692;2022-10-15T00:55:50;11.32;;;3.80;;
75704;SDS011;64323;44.788;37.692;2022-10-15T00:58:22;9.00;;;4.07;;
75704;SDS011;64323;44.788;37.692;2022-10-15T01:01:01;14.43;;;4.55;;
75704;SDS011;64323;44.788;37.692;2022-10-15T01:03:33;9.80;;;4.32;;
75704;SDS011;64323;44.788;37.692;2022-10-15T01:06:06;14.32;;;4.65;;
75704;SDS011;64323;44.788;37.692;2022-10-15T01:08:38;10.75;;;4.55;;
75704;SDS011;64323;44.788;37.692;2022-10-15T01:31:20;8.75;;;4.75;;
75704;SDS011;64323;44.788;37.692;2022-10-15T01:34:09;14.73;;;4.65;;
75704;SDS011;64323;44.788;37.692;2022-10-15T01:36:56;10.93;;;4.60;;
75704;SDS011;64323;44.788;37.692;2022-10-15T01:39:46;10.52;;;4.75;;
75704;SDS011;64323;44.788;37.692;2022-10-15T01:42:32;9.43;;;4.65;;
75704;SDS011;64323;44.788;37.692;2022-10-15T01:45:12;11.57;;;5.03;;
75704;SDS011;64323;44.788;37.692;2022-10-15T01:48:10;17.20;;;4.68;;
75704;SDS011;64323;44.788;37.692;2022-10-15T01:50:46;7.68;;;4.60;;
75704;SDS011;64323;44.788;37.692;2022-10-15T01:53:22;11.32;;;4.85;;
75704;SDS011;64323;44.788;37.692;2022-10-15T01:55:58;10.95;;;5.20;;
75704;SDS011;64323;44.788;37.692;2022-10-15T01:58:36;11.70;;;5.18;;
75704;SDS011;64323;44.788;37.692;2022-10-15T02:01:11;8.82;;;5.13;;
75704;SDS011;64323;44.788;37.692;2022-10-15T02:03:44;13.10;;;5.15;;
75704;SDS011;64323;44.788;37.692;2022-10-15T02:12:10;15.75;;;5.15;;
75704;SDS011;64323;44.788;37.692;2022-10-15T02:15:07;11.60;;;5.28;;
75704;SDS011;64323;44.788;37.692;2022-10-15T02:17:57;12.40;;;4.72;;
75704;SDS011;64323;44.788;37.692;2022-10-15T02:23:52;10.90;;;5.60;;
75704;SDS011;64323;44.788;37.692;2022-10-15T02:26:30;15.85;;;5.60;;
75704;SDS011;64323;44.788;37.692;2022-10-15T02:29:04;12.15;;;5.28;;
75704;SDS011;64323;44.788;37.692;2022-10-15T02:31:40;12.15;;;5.72;;
75704;SDS011;64323;44.788;37.692;2022-10-15T02:34:19;10.73;;;5.07;;
75704;SDS011;64323;44.788;37.692;2022-10-15T02:36:53;12.98;;;6.03;;
75704;SDS011;64323;44.788;37.692;2022-10-15T02:39:27;11.45;;;5.47;;
75704;SDS011;64323;44.788;37.692;2022-10-15T02:42:00;13.10;;;5.47;;
75704;SDS011;64323;44.788;37.692;2022-10-15T02:44:32;11.30;;;5.55;;
75704;SDS011;64323;44.788;37.692;2022-10-15T02:47:05;11.48;;;5.72;;
75704;SDS011;64323;44.788;37.692;2022-10-15T02:49:37;15.32;;;5.53;;
75704;SDS011;64323;44.788;37.692;2022-10-15T02:52:09;9.60;;;5.80;;
75704;SDS011;64323;44.788;37.692;2022-10-15T02:54:41;14.63;;;5.95;;
75704;SDS011;64323;44.788;37.692;2022-10-15T02:57:13;12.65;;;6.20;;
75704;SDS011;64323;44.788;37.692;2022-10-15T02:59:47;11.57;;;6.03;;
75704;SDS011;64323;44.788;37.692;2022-10-15T03:02:19;13.60;;;6.72;;
75704;SDS011;64323;44.788;37.692;2022-10-15T03:04:51;9.50;;;5.70;;
75704;SDS011;64323;44.788;37.692;2022-10-15T03:07:23;13.45;;;5.78;;
75704;SDS011;64323;44.788;37.692;2022-10-15T03:09:55;12.13;;;5.57;;
75704;SDS011;64323;44.788;37.692;2022-10-15T03:12:28;10.35;;;6.07;;
75704;SDS011;64323;44.788;37.692;2022-10-15T03:15:01;26.30;;;6.43;;
75704;SDS011;64323;44.788;37.692;2022-10-15T03:17:33;10.73;;;6.13;;
75704;SDS011;64323;44.788;37.692;2022-10-15T03:20:05;14.82;;;6.13;;
75704;SDS011;64323;44.788;37.692;2022-10-15T03:22:40;12.93;;;5.53;;
75704;SDS011;64323;44.788;37.692;2022-10-15T03:25:12;13.02;;;5.95;;
75704;SDS011;64323;44.788;37.692;2022-10-15T03:27:44;10.40;;;5.85;;
75704;SDS011;64323;44.788;37.692;2022-10-15T03:30:27;10.50;;;5.45;;
75704;SDS011;64323;44.788;37.692;2022-10-15T03:32:59;12.52;;;6.30;;
75704;SDS011;64323;44.788;37.692;2022-10-15T03:35:32;10.18;;;6.10;;
75704;SDS011;64323;44.788;37.692;2022-10-15T03:38:05;9.52;;;5.57;;
75704;SDS011;64323;44.788;37.692;2022-10-15T03:40:37;10.40;;;6.25;;
75704;SDS011;64323;44.788;37.692;2022-10-15T03:43:24;12.00;;;6.35;;
75704;SDS011;64323;44.788;37.692;2022-10-15T03:46:00;11.20;;;6.47;;
75704;SDS011;64323;44.788;37.692;2022-10-15T03:48:33;13.30;;;6.00;;
75704;SDS011;64323;44.788;37.692;2022-10-15T03:51:05;14.85;;;6.85;;
75704;SDS011;64323;44.788;37.692;2022-10-15T03:53:37;10.55;;;6.45;;
75704;SDS011;64323;44.788;37.692;2022-10-15T03:56:09;13.20;;;6.55;;
75704;SDS011;64323;44.788;37.692;2022-10-15T03:58:43;12.98;;;6.65;;
75704;SDS011;64323;44.788;37.692;2022-10-15T04:01:19;11.75;;;6.43;;
75704;SDS011;64323;44.788;37.692;2022-10-15T04:03:52;13.27;;;6.22;;
75704;SDS011;64323;44.788;37.692;2022-10-15T04:06:25;12.07;;;6.35;;
75704;SDS011;64323;44.788;37.692;2022-10-15T04:08:57;15.50;;;6.70;;
75704;SDS011;64323;44.788;37.692;2022-10-15T04:11:30;14.48;;;7.10;;
75704;SDS011;64323;44.788;37.692;2022-10-15T04:14:07;12.50;;;6.78;;
75704;SDS011;64323;44.788;37.692;2022-10-15T04:16:39;10.93;;;6.30;;
75704;SDS011;64323;44.788;37.692;2022-10-15T04:19:22;11.82;;;6.45;;
75704;SDS011;64323;44.788;37.692;2022-10-15T04:22:06;16.67;;;6.95;;
75704;SDS011;64323;44.788;37.692;2022-10-15T04:24:46;11.23;;;6.40;;
75704;SDS011;64323;44.788;37.692;2022-10-15T04:27:28;17.30;;;7.13;;
75704;SDS011;64323;44.788;37.692;2022-10-15T04:30:10;11.02;;;6.07;;
75704;SDS011;64323;44.788;37.692;2022-10-15T04:32:50;10.45;;;6.47;;
75704;SDS011;64323;44.788;37.692;2022-10-15T04:35:23;13.88;;;6.20;;
75704;SDS011;64323;44.788;37.692;2022-10-15T04:38:16;12.88;;;6.57;;
75704;SDS011;64323;44.788;37.692;2022-10-15T04:41:17;17.00;;;6.18;;
75704;SDS011;64323;44.788;37.692;2022-10-15T04:44:15;13.68;;;6.85;;
75704;SDS011;64323;44.788;37.692;2022-10-15T04:46:53;10.80;;;6.03;;
75704;SDS011;64323;44.788;37.692;2022-10-15T04:49:36;10.43;;;6.38;;
75704;SDS011;64323;44.788;37.692;2022-10-15T04:52:13;13.90;;;6.38;;
75704;SDS011;64323;44.788;37.692;2022-10-15T04:54:53;15.30;;;6.40;;
75704;SDS011;64323;44.788;37.692;2022-10-15T04:57:25;14.30;;;6.40;;
75704;SDS011;64323;44.788;37.692;2022-10-15T04:59:58;16.10;;;5.90;;
75704;SDS011;64323;44.788;37.692;2022-10-15T05:02:36;13.45;;;6.70;;
75704;SDS011;64323;44.788;37.692;2022-10-15T05:05:28;12.85;;;6.50;;
75704;SDS011;64323;44.788;37.692;2022-10-15T05:08:03;14.27;;;6.65;;
75704;SDS011;64323;44.788;37.692;2022-10-15T05:10:44;11.32;;;5.78;;
75704;SDS011;64323;44.788;37.692;2022-10-15T05:13:16;20.55;;;6.25;;
75704;SDS011;64323;44.788;37.692;2022-10-15T05:15:48;17.13;;;6.38;;
75704;SDS011;64323;44.788;37.692;2022-10-15T05:18:20;20.48;;;6.60;;
75704;SDS011;64323;44.788;37.692;2022-10-15T05:20:59;12.23;;;6.18;;
75704;SDS011;64323;44.788;37.692;2022-10-15T05:23:31;20.05;;;6.70;;
75704;SDS011;64323;44.788;37.692;2022-10-15T05:26:19;12.00;;;6.13;;
75704;SDS011;64323;44.788;37.692;2022-10-15T05:28:52;15.43;;;6.18;;
75704;SDS011;64323;44.788;37.692;2022-10-15T05:31:30;10.43;;;5.93;;
75704;SDS011;64323;44.788;37.692;2022-10-15T05:34:17;10.95;;;5.68;;
75704;SDS011;64323;44.788;37.692;2022-10-15T05:36:56;17.13;;;6.68;;
75704;SDS011;64323;44.788;37.692;2022-10-15T05:39:28;12.60;;;6.30;;
75704;SDS011;64323;44.788;37.692;2022-10-15T05:41:59;15.80;;;6.32;;
75704;SDS011;64323;44.788;37.692;2022-10-15T05:45:00;15.48;;;6.43;;
75704;SDS011;64323;44.788;37.692;2022-10-15T05:47:32;17.98;;;6.30;;
75704;SDS011;64323;44.788;37.692;2022-10-15T05:52:53;10.27;;;5.60;;
75704;SDS011;64323;44.788;37.692;2022-10-15T05:55:31;13.70;;;6.90;;
75704;SDS011;64323;44.788;37.692;2022-10-15T05:58:03;11.40;;;5.72;;
75704;SDS011;64323;44.788;37.692;2022-10-15T06:00:36;14.80;;;6.07;;
75704;SDS011;64323;44.788;37.692;2022-10-15T06:03:11;16.20;;;5.90;;
75704;SDS011;64323;44.788;37.692;2022-10-15T06:05:45;13.85;;;6.03;;
75704;SDS011;64323;44.788;37.692;2022-10-15T06:08:20;15.73;;;6.95;;
75704;SDS011;64323;44.788;37.692;2022-10-15T06:10:52;22.60;;;5.97;;
75704;SDS011;64323;44.788;37.692;2022-10-15T06:13:26;14.23;;;6.10;;
75704;SDS011;64323;44.788;37.692;2022-10-15T06:15:57;13.82;;;5.78;;
75704;SDS011;64323;44.788;37.692;2022-10-15T06:18:29;17.45;;;6.13;;
75704;SDS011;64323;44.788;37.692;2022-10-15T06:21:01;12.50;;;5.85;;
75704;SDS011;64323;44.788;37.692;2022-10-15T06:23:34;17.25;;;5.93;;
75704;SDS011;64323;44.788;37.692;2022-10-15T06:26:07;13.55;;;5.90;;
75704;SDS011;64323;44.788;37.692;2022-10-15T06:28:40;18.70;;;5.78;;
75704;SDS011;64323;44.788;37.692;2022-10-15T06:31:12;12.20;;;5.53;;
75704;SDS011;64323;44.788;37.692;2022-10-15T06:33:44;13.27;;;6.05;;
75704;SDS011;64323;44.788;37.692;2022-10-15T06:36:16;11.63;;;5.28;;
75704;SDS011;64323;44.788;37.692;2022-10-15T06:38:47;11.63;;;5.30;;
75704;SDS011;64323;44.788;37.692;2022-10-15T06:41:19;10.10;;;5.15;;
75704;SDS011;64323;44.788;37.692;2022-10-15T06:43:51;13.52;;;5.50;;
75704;SDS011;64323;44.788;37.692;2022-10-15T06:46:24;13.70;;;4.90;;
75704;SDS011;64323;44.788;37.692;2022-10-15T06:48:56;10.40;;;5.30;;
75704;SDS011;64323;44.788;37.692;2022-10-15T06:51:28;10.27;;;5.20;;
75704;SDS011;64323;44.788;37.692;2022-10-15T06:54:00;15.25;;;5.13;;
75704;SDS011;64323;44.788;37.692;2022-10-15T06:56:31;23.63;;;5.50;;
75704;SDS011;64323;44.788;37.692;2022-10-15T06:59:04;15.60;;;5.15;;
75704;SDS011;64323;44.788;37.692;2022-10-15T07:01:35;10.27;;;4.93;;
75704;SDS011;64323;44.788;37.692;2022-10-15T07:04:07;14.65;;;5.38;;
75704;SDS011;64323;44.788;37.692;2022-10-15T07:06:39;21.15;;;4.45;;
75704;SDS011;64323;44.788;37.692;2022-10-15T07:09:11;9.63;;;4.65;;
75704;SDS011;64323;44.788;37.692;2022-10-15T07:11:43;14.88;;;5.15;;
75704;SDS011;64323;44.788;37.692;2022-10-15T07:14:15;10.85;;;4.75;;
75704;SDS011;64323;44.788;37.692;2022-10-15T07:16:47;10.73;;;4.65;;
75704;SDS011;64323;44.788;37.692;2022-10-15T07:19:19;15.25;;;4.82;;
75704;SDS011;64323;44.788;37.692;2022-10-15T07:21:52;9.32;;;4.63;;
75704;SDS011;64323;44.788;37.692;2022-10-15T07:24:24;8.85;;;4.25;;
75704;SDS011;64323;44.788;37.692;2022-10-15T07:26:55;11.95;;;4.70;;
75704;SDS011;64323;44.788;37.692;2022-10-15T07:29:27;12.07;;;4.82;;
75704;SDS011;64323;44.788;37.692;2022-10-15T07:31:59;14.90;;;4.53;;
75704;SDS011;64323;44.788;37.692;2022-10-15T07:34:31;12.75;;;4.30;;
75704;SDS011;64323;44.788;37.692;2022-10-15T07:37:03;10.20;;;4.10;;
75704;SDS011;64323;44.788;37.692;2022-10-15T07:39:35;7.55;;;4.43;;
75704;SDS011;64323;44.788;37.692;2022-10-15T07:42:07;21.52;;;4.85;;
75704;SDS011;64323;44.788;37.692;2022-10-15T07:44:38;13.27;;;4.55;;
75704;SDS011;64323;44.788;37.692;2022-10-15T07:47:14;10.35;;;4.78;;
75704;SDS011;64323;44.788;37.692;2022-10-15T07:49:46;13.68;;;4.43;;
75704;SDS011;64323;44.788;37.692;2022-10-15T07:52:18;10.85;;;4.20;;
75704;SDS011;64323;44.788;37.692;2022-10-15T07:54:50;12.63;;;4.55;;
75704;SDS011;64323;44.788;37.692;2022-10-15T07:57:23;11.25;;;4.75;;
75704;SDS011;64323;44.788;37.692;2022-10-15T07:59:55;7.10;;;4.10;;
75704;SDS011;64323;44.788;37.692;2022-10-15T08:02:27;8.32;;;4.28;;
75704;SDS011;64323;44.788;37.692;2022-10-15T08:04:59;10.52;;;4.43;;
75704;SDS011;64323;44.788;37.692;2022-10-15T08:07:30;13.10;;;4.65;;
75704;SDS011;64323;44.788;37.692;2022-10-15T08:10:02;15.50;;;4.28;;
75704;SDS011;64323;44.788;37.692;2022-10-15T08:12:36;12.37;;;4.50;;
75704;SDS011;64323;44.788;37.692;2022-10-15T08:15:08;10.57;;;4.10;;
75704;SDS011;64323;44.788;37.692;2022-10-15T08:17:40;10.35;;;4.55;;
75704;SDS011;64323;44.788;37.692;2022-10-15T08:20:14;7.93;;;3.78;;
75704;SDS011;64323;44.788;37.692;2022-10-15T08:22:45;12.40;;;4.15;;
75704;SDS011;64323;44.788;37.692;2022-10-15T08:25:17;20.88;;;4.30;;
75704;SDS011;64323;44.788;37.692;2022-10-15T08:27:51;14.60;;;4.38;;
75704;SDS011;64323;44.788;37.692;2022-10-15T08:30:24;16.33;;;4.30;;
75704;SDS011;64323;44.788;37.692;2022-10-15T08:32:55;12.95;;;3.67;;
75704;SDS011;64323;44.788;37.692;2022-10-15T08:35:28;11.93;;;3.92;;
75704;SDS011;64323;44.788;37.692;2022-10-15T08:38:00;7.55;;;3.92;;
75704;SDS011;64323;44.788;37.692;2022-10-15T08:40:32;11.93;;;4.20;;
75704;SDS011;64323;44.788;37.692;2022-10-15T08:43:05;12.35;;;4.32;;
75704;SDS011;64323;44.788;37.692;2022-10-15T08:45:40;13.57;;;4.32;;
75704;SDS011;64323;44.788;37.692;2022-10-15T08:48:17;13.63;;;4.00;;
75704;SDS011;64323;44.788;37.692;2022-10-15T08:53:42;9.57;;;3.83;;
75704;SDS011;64323;44.788;37.692;2022-10-15T08:56:21;11.85;;;3.83;;
75704;SDS011;64323;44.788;37.692;2022-10-15T09:02:06;19.25;;;4.00;;
75704;SDS011;64323;44.788;37.692;2022-10-15T09:11:08;11.32;;;3.88;;
75704;SDS011;64323;44.788;37.692;2022-10-15T09:13:49;11.00;;;5.03;;
75704;SDS011;64323;44.788;37.692;2022-10-15T09:16:28;9.52;;;3.78;;
75704;SDS011;64323;44.788;37.692;2022-10-15T09:19:13;9.40;;;4.13;;
75704;SDS011;64323;44.788;37.692;2022-10-15T09:21:52;9.77;;;3.50;;
75704;SDS011;64323;44.788;37.692;2022-10-15T09:24:26;11.30;;;3.60;;
75704;SDS011;64323;44.788;37.692;2022-10-15T09:27:15;9.00;;;3.85;;
75704;SDS011;64323;44.788;37.692;2022-10-15T09:30:02;9.68;;;2.90;;
75704;SDS011;64323;44.788;37.692;2022-10-15T09:32:40;11.30;;;4.05;;
75704;SDS011;64323;44.788;37.692;2022-10-15T09:35:18;16.58;;;3.30;;
75704;SDS011;64323;44.788;37.692;2022-10-15T09:38:00;15.77;;;3.90;;
75704;SDS011;64323;44.788;37.692;2022-10-15T09:43:35;8.93;;;3.60;;
75704;SDS011;64323;44.788;37.692;2022-10-15T09:46:08;19.08;;;3.38;;
75704;SDS011;64323;44.788;37.692;2022-10-15T09:57:02;9.23;;;3.53;;
75704;SDS011;64323;44.788;37.692;2022-10-15T09:59:40;14.48;;;3.90;;
75704;SDS011;64323;44.788;37.692;2022-10-15T10:02:26;7.00;;;3.10;;
75704;SDS011;64323;44.788;37.692;2022-10-15T10:05:16;20.65;;;3.33;;
75704;SDS011;64323;44.788;37.692;2022-10-15T10:07:50;13.70;;;4.00;;
75704;SDS011;64323;44.788;37.692;2022-10-15T10:10:41;15.55;;;3.83;;
75704;SDS011;64323;44.788;37.692;2022-10-15T10:13:23;7.97;;;3.60;;
75704;SDS011;64323;44.788;37.692;2022-10-15T10:16:05;10.05;;;3.67;;
75704;SDS011;64323;44.788;37.692;2022-10-15T10:18:41;10.27;;;3.60;;
75704;SDS011;64323;44.788;37.692;2022-10-15T10:21:22;13.50;;;3.40;;
75704;SDS011;64323;44.788;37.692;2022-10-15T10:24:18;13.98;;;3.10;;
75704;SDS011;64323;44.788;37.692;2022-10-15T10:26:50;17.02;;;3.65;;
75704;SDS011;64323;44.788;37.692;2022-10-15T10:29:22;32.03;;;3.85;;
75704;SDS011;64323;44.788;37.692;2022-10-15T10:31:55;8.27;;;2.70;;
75704;SDS011;64323;44.788;37.692;2022-10-15T10:34:30;14.52;;;3.20;;
75704;SDS011;64323;44.788;37.692;2022-10-15T10:37:03;9.82;;;2.80;;
75704;SDS011;64323;44.788;37.692;2022-10-15T10:39:37;12.93;;;2.92;;
75704;SDS011;64323;44.788;37.692;2022-10-15T10:44:52;12.65;;;3.05;;
75704;SDS011;64323;44.788;37.692;2022-10-15T10:47:24;15.00;;;3.28;;
75704;SDS011;64323;44.788;37.692;2022-10-15T10:49:59;12.52;;;2.90;;
75704;SDS011;64323;44.788;37.692;2022-10-15T10:52:32;9.40;;;2.90;;
75704;SDS011;64323;44.788;37.692;2022-10-15T10:57:55;11.05;;;2.75;;
75704;SDS011;64323;44.788;37.692;2022-10-15T11:00:43;9.38;;;2.53;;
75704;SDS011;64323;44.788;37.692;2022-10-15T11:03:22;11.05;;;3.38;;
75704;SDS011;64323;44.788;37.692;2022-10-15T11:06:32;22.63;;;3.53;;
75704;SDS011;64323;44.788;37.692;2022-10-15T11:22:55;13.48;;;3.10;;
75704;SDS011;64323;44.788;37.692;2022-10-15T11:26:00;11.95;;;3.60;;
75704;SDS011;64323;44.788;37.692;2022-10-15T11:28:47;19.08;;;4.32;;
75704;SDS011;64323;44.788;37.692;2022-10-15T11:31:58;22.55;;;5.13;;
75704;SDS011;64323;44.788;37.692;2022-10-15T11:43:14;13.98;;;5.50;;
75704;SDS011;64323;44.788;37.692;2022-10-15T11:46:26;16.30;;;4.05;;
75704;SDS011;64323;44.788;37.692;2022-10-15T11:52:03;10.75;;;2.53;;
75704;SDS011;64323;44.788;37.692;2022-10-15T11:57:11;10.98;;;2.70;;
75704;SDS011;64323;44.788;37.692;2022-10-15T12:02:43;14.60;;;3.38;;
75704;SDS011;64323;44.788;37.692;2022-10-15T12:08:38;10.48;;;2.70;;
75704;SDS011;64323;44.788;37.692;2022-10-15T12:13:59;16.23;;;3.75;;
75704;SDS011;64323;44.788;37.692;2022-10-15T12:25:38;14.13;;;2.97;;
75704;SDS011;64323;44.788;37.692;2022-10-15T12:31:08;10.05;;;3.22;;
75704;SDS011;64323;44.788;37.692;2022-10-15T12:33:49;10.85;;;3.08;;
75704;SDS011;64323;44.788;37.692;2022-10-15T12:36:26;19.73;;;3.55;;
75704;SDS011;64323;44.788;37.692;2022-10-15T12:39:07;13.00;;;3.50;;
75704;SDS011;64323;44.788;37.692;2022-10-15T12:41:54;10.50;;;2.78;;
75704;SDS011;64323;44.788;37.692;2022-10-15T12:44:27;12.77;;;3.15;;
75704;SDS011;64323;44.788;37.692;2022-10-15T12:47:05;11.98;;;3.10;;
75704;SDS011;64323;44.788;37.692;2022-10-15T13:00:57;16.25;;;3.25;;
75704;SDS011;64323;44.788;37.692;2022-10-15T13:03:38;9.40;;;2.95;;
75704;SDS011;64323;44.788;37.692;2022-10-15T13:11:48;9.27;;;2.78;;
75704;SDS011;64323;44.788;37.692;2022-10-15T13:17:17;20.15;;;2.80;;
75704;SDS011;64323;44.788;37.692;2022-10-15T13:19:55;19.00;;;2.92;;
75704;SDS011;64323;44.788;37.692;2022-10-15T13:22:31;15.70;;;3.60;;
75704;SDS011;64323;44.788;37.692;2022-10-15T13:25:14;9.65;;;2.90;;
75704;SDS011;64323;44.788;37.692;2022-10-15T13:27:46;18.38;;;3.22;;
75704;SDS011;64323;44.788;37.692;2022-10-15T13:30:18;13.18;;;3.83;;
75704;SDS011;64323;44.788;37.692;2022-10-15T13:32:51;9.75;;;3.42;;
75704;SDS011;64323;44.788;37.692;2022-10-15T13:35:27;8.95;;;3.38;;
75704;SDS011;64323;44.788;37.692;2022-10-15T13:38:02;6.65;;;2.95;;
75704;SDS011;64323;44.788;37.692;2022-10-15T13:40:35;9.73;;;3.53;;
75704;SDS011;64323;44.788;37.692;2022-10-15T13:43:18;9.85;;;3.00;;
75704;SDS011;64323;44.788;37.692;2022-10-15T13:45:53;9.93;;;3.33;;
75704;SDS011;64323;44.788;37.692;2022-10-15T13:48:29;21.88;;;3.72;;
75704;SDS011;64323;44.788;37.692;2022-10-15T13:51:03;10.68;;;3.60;;
75704;SDS011;64323;44.788;37.692;2022-10-15T13:53:40;11.18;;;3.67;;
75704;SDS011;64323;44.788;37.692;2022-10-15T13:56:30;12.25;;;3.70;;
75704;SDS011;64323;44.788;37.692;2022-10-15T13:59:03;12.10;;;3.70;;
75704;SDS011;64323;44.788;37.692;2022-10-15T14:01:35;10.07;;;3.47;;
75704;SDS011;64323;44.788;37.692;2022-10-15T14:04:17;15.02;;;3.92;;
75704;SDS011;64323;44.788;37.692;2022-10-15T14:06:52;12.32;;;4.10;;
75704;SDS011;64323;44.788;37.692;2022-10-15T14:09:32;11.50;;;3.60;;
75704;SDS011;64323;44.788;37.692;2022-10-15T14:12:06;11.13;;;3.83;;
75704;SDS011;64323;44.788;37.692;2022-10-15T14:14:42;13.02;;;3.88;;
75704;SDS011;64323;44.788;37.692;2022-10-15T14:19:54;11.45;;;3.95;;
75704;SDS011;64323;44.788;37.692;2022-10-15T14:22:29;10.30;;;3.97;;
75704;SDS011;64323;44.788;37.692;2022-10-15T14:25:03;9.82;;;3.65;;
75704;SDS011;64323;44.788;37.692;2022-10-15T14:27:43;11.93;;;2.95;;
75704;SDS011;64323;44.788;37.692;2022-10-15T14:30:31;9.10;;;3.30;;
75704;SDS011;64323;44.788;37.692;2022-10-15T14:33:26;12.05;;;3.90;;
75704;SDS011;64323;44.788;37.692;2022-10-15T14:49:40;12.00;;;3.80;;
75704;SDS011;64323;44.788;37.692;2022-10-15T14:52:12;17.15;;;3.53;;
75704;SDS011;64323;44.788;37.692;2022-10-15T14:54:58;9.77;;;3.35;;
75704;SDS011;64323;44.788;37.692;2022-10-15T14:57:36;6.10;;;3.00;;
75704;SDS011;64323;44.788;37.692;2022-10-15T15:03:03;7.95;;;3.22;;
75704;SDS011;64323;44.788;37.692;2022-10-15T15:05:46;12.02;;;3.28;;
75704;SDS011;64323;44.788;37.692;2022-10-15T15:08:20;14.07;;;3.72;;
75704;SDS011;64323;44.788;37.692;2022-10-15T15:10:54;16.80;;;3.65;;
75704;SDS011;64323;44.788;37.692;2022-10-15T15:13:29;7.43;;;3.40;;
75704;SDS011;64323;44.788;37.692;2022-10-15T15:16:02;10.93;;;3.58;;
75704;SDS011;64323;44.788;37.692;2022-10-15T15:18:35;9.48;;;4.20;;
75704;SDS011;64323;44.788;37.692;2022-10-15T15:21:06;7.25;;;3.60;;
75704;SDS011;64323;44.788;37.692;2022-10-15T15:23:43;11.88;;;3.85;;
75704;SDS011;64323;44.788;37.692;2022-10-15T15:26:15;16.55;;;4.55;;
75704;SDS011;64323;44.788;37.692;2022-10-15T15:40:22;14.48;;;6.55;;
75704;SDS011;64323;44.788;37.692;2022-10-15T15:42:55;17.30;;;7.85;;
75704;SDS011;64323;44.788;37.692;2022-10-15T15:45:27;19.30;;;8.18;;
75704;SDS011;64323;44.788;37.692;2022-10-15T15:47:59;32.53;;;12.45;;
75704;SDS011;64323;44.788;37.692;2022-10-15T15:50:33;25.35;;;10.93;;
75704;SDS011;64323;44.788;37.692;2022-10-15T15:53:07;27.88;;;10.88;;
75704;SDS011;64323;44.788;37.692;2022-10-15T15:55:41;24.85;;;10.80;;
75704;SDS011;64323;44.788;37.692;2022-10-15T15:58:13;20.55;;;9.60;;
75704;SDS011;64323;44.788;37.692;2022-10-15T16:00:45;21.83;;;7.93;;
75704;SDS011;64323;44.788;37.692;2022-10-15T16:03:17;36.72;;;13.93;;
75704;SDS011;64323;44.788;37.692;2022-10-15T16:05:49;32.83;;;12.95;;
75704;SDS011;64323;44.788;37.692;2022-10-15T16:08:22;22.38;;;9.20;;
75704;SDS011;64323;44.788;37.692;2022-10-15T16:10:54;25.40;;;10.68;;
75704;SDS011;64323;44.788;37.692;2022-10-15T16:13:28;19.92;;;7.35;;
75704;SDS011;64323;44.788;37.692;2022-10-15T16:16:00;17.13;;;7.38;;
75704;SDS011;64323;44.788;37.692;2022-10-15T16:18:32;28.52;;;7.00;;
75704;SDS011;64323;44.788;37.692;2022-10-15T16:21:04;16.80;;;7.10;;
75704;SDS011;64323;44.788;37.692;2022-10-15T16:23:36;15.40;;;5.50;;
75704;SDS011;64323;44.788;37.692;2022-10-15T16:26:08;18.60;;;7.18;;
75704;SDS011;64323;44.788;37.692;2022-10-15T16:28:39;13.70;;;6.07;;
75704;SDS011;64323;44.788;37.692;2022-10-15T16:31:12;11.05;;;5.47;;
75704;SDS011;64323;44.788;37.692;2022-10-15T16:33:44;15.10;;;5.25;;
75704;SDS011;64323;44.788;37.692;2022-10-15T16:36:17;12.40;;;5.15;;
75704;SDS011;64323;44.788;37.692;2022-10-15T16:38:49;16.52;;;5.75;;
75704;SDS011;64323;44.788;37.692;2022-10-15T16:41:21;21.88;;;5.72;;
75704;SDS011;64323;44.788;37.692;2022-10-15T16:43:53;16.42;;;6.22;;
75704;SDS011;64323;44.788;37.692;2022-10-15T16:46:25;13.52;;;6.15;;
75704;SDS011;64323;44.788;37.692;2022-10-15T16:48:57;22.98;;;6.40;;
75704;SDS011;64323;44.788;37.692;2022-10-15T16:51:29;11.48;;;5.60;;
75704;SDS011;64323;44.788;37.692;2022-10-15T16:54:01;11.38;;;5.47;;
75704;SDS011;64323;44.788;37.692;2022-10-15T16:56:34;23.17;;;6.28;;
75704;SDS011;64323;44.788;37.692;2022-10-15T16:59:09;20.02;;;5.75;;
75704;SDS011;64323;44.788;37.692;2022-10-15T17:01:42;19.92;;;5.95;;
75704;SDS011;64323;44.788;37.692;2022-10-15T17:04:14;13.32;;;5.65;;
75704;SDS011;64323;44.788;37.692;2022-10-15T17:06:46;22.13;;;5.43;;
75704;SDS011;64323;44.788;37.692;2022-10-15T17:09:18;11.63;;;5.35;;
75704;SDS011;64323;44.788;37.692;2022-10-15T17:11:50;18.05;;;5.88;;
75704;SDS011;64323;44.788;37.692;2022-10-15T17:14:22;13.82;;;5.32;;
75704;SDS011;64323;44.788;37.692;2022-10-15T17:16:54;19.50;;;6.20;;
75704;SDS011;64323;44.788;37.692;2022-10-15T17:19:28;15.43;;;5.93;;
75704;SDS011;64323;44.788;37.692;2022-10-15T17:22:00;23.50;;;6.10;;
75704;SDS011;64323;44.788;37.692;2022-10-15T17:24:32;18.67;;;6.47;;
75704;SDS011;64323;44.788;37.692;2022-10-15T17:27:04;14.88;;;5.43;;
75704;SDS011;64323;44.788;37.692;2022-10-15T17:29:36;22.27;;;9.27;;
75704;SDS011;64323;44.788;37.692;2022-10-15T17:32:08;13.27;;;6.05;;
75704;SDS011;64323;44.788;37.692;2022-10-15T17:34:41;20.35;;;6.32;;
75704;SDS011;64323;44.788;37.692;2022-10-15T17:37:38;14.02;;;6.25;;
75704;SDS011;64323;44.788;37.692;2022-10-15T17:40:12;19.58;;;6.38;;
75704;SDS011;64323;44.788;37.692;2022-10-15T17:43:04;14.55;;;6.25;;
75704;SDS011;64323;44.788;37.692;2022-10-15T17:45:36;19.73;;;6.35;;
75704;SDS011;64323;44.788;37.692;2022-10-15T17:48:09;16.17;;;5.82;;
75704;SDS011;64323;44.788;37.692;2022-10-15T17:50:41;15.70;;;5.47;;
75704;SDS011;64323;44.788;37.692;2022-10-15T17:53:14;15.40;;;5.93;;
75704;SDS011;64323;44.788;37.692;2022-10-15T17:55:46;16.38;;;5.93;;